N29YL KFRG-KBOS
Flight info
| Callsign | N29YL |
|---|---|
| Flight time | N/A |
| Altitude | 15000 |
| Route | BDR HFD FOSTY WOONS2 |
| Aircraft | BE9L/L-VGDW/C |
Departure
| Time | 2026-04-30 00:51 |
|---|---|
| Airport | Republic Airport (KFRG) |
Arrival
| Time | N/A |
|---|---|
| Airport | Boston Logan International Airport (KBOS) |
| Time | Latitude | Longitude | Altitude | Speed | Heading |
|---|---|---|---|---|---|
| 2026-04-30 00:16 | 40.73107 | -73.41161 | 83 ft | 0 kts | 257° |
| 2026-04-30 00:24 | 40.73121 | -73.41187 | 83 ft | 9 kts | 342° |
| 2026-04-30 00:24 | 40.73160 | -73.41200 | 83 ft | 2 kts | 343° |
| 2026-04-30 00:24 | 40.73214 | -73.41232 | 83 ft | 13 kts | 334° |
| 2026-04-30 00:24 | 40.73286 | -73.41296 | 83 ft | 0 kts | 307° |
| 2026-04-30 00:25 | 40.73284 | -73.41314 | 83 ft | 5 kts | 286° |
| 2026-04-30 00:25 | 40.73358 | -73.41327 | 83 ft | 15 kts | 334° |
| 2026-04-30 00:25 | 40.73414 | -73.41385 | 83 ft | 8 kts | 264° |
| 2026-04-30 00:25 | 40.73389 | -73.41481 | 83 ft | 13 kts | 291° |
| 2026-04-30 00:26 | 40.73352 | -73.41566 | 83 ft | 17 kts | 195° |
| 2026-04-30 00:26 | 40.73383 | -73.41686 | 83 ft | 12 kts | 311° |
| 2026-04-30 00:26 | 40.73365 | -73.41797 | 83 ft | 18 kts | 255° |
| 2026-04-30 00:26 | 40.73457 | -73.41950 | 83 ft | 24 kts | 311° |
| 2026-04-30 00:27 | 40.73475 | -73.41984 | 83 ft | 0 kts | 287° |
| 2026-04-30 00:28 | 40.73478 | -73.41997 | 83 ft | 6 kts | 282° |
| 2026-04-30 00:28 | 40.73474 | -73.42038 | 83 ft | 0 kts | 252° |
| 2026-04-30 00:49 | 40.73468 | -73.42062 | 83 ft | 8 kts | 252° |
| 2026-04-30 00:49 | 40.73416 | -73.42107 | 83 ft | 15 kts | 135° |
| 2026-04-30 00:50 | 40.73410 | -73.42099 | 83 ft | 0 kts | 133° |
| 2026-04-30 00:50 | 40.73404 | -73.42091 | 83 ft | 13 kts | 133° |
| 2026-04-30 00:50 | 40.73116 | -73.41672 | 83 ft | 99 kts | 133° |
| 2026-04-30 00:51 | 40.72593 | -73.40891 | 300 ft | 121 kts | 133° |
| 2026-04-30 00:51 | 40.71969 | -73.39992 | 544 ft | 145 kts | 132° |
| 2026-04-30 00:51 | 40.71635 | -73.38658 | 803 ft | 166 kts | 88° |
| 2026-04-30 00:51 | 40.72142 | -73.37260 | 1057 ft | 179 kts | 44° |
| 2026-04-30 00:52 | 40.73292 | -73.36641 | 1311 ft | 187 kts | 6° |
| 2026-04-30 00:52 | 40.74551 | -73.36224 | 1563 ft | 191 kts | 18° |
| 2026-04-30 00:52 | 40.75823 | -73.35595 | 1819 ft | 194 kts | 22° |
| 2026-04-30 00:52 | 40.77065 | -73.34914 | 2068 ft | 196 kts | 24° |
| 2026-04-30 00:53 | 40.78330 | -73.34199 | 2320 ft | 197 kts | 24° |
| 2026-04-30 00:53 | 40.79582 | -73.33485 | 2569 ft | 198 kts | 24° |
| 2026-04-30 00:53 | 40.80841 | -73.32764 | 2819 ft | 198 kts | 24° |
| 2026-04-30 00:53 | 40.82107 | -73.32039 | 3070 ft | 198 kts | 24° |
| 2026-04-30 00:54 | 40.83371 | -73.31313 | 3321 ft | 198 kts | 24° |
| 2026-04-30 00:54 | 40.84629 | -73.30592 | 3570 ft | 198 kts | 24° |
| 2026-04-30 00:54 | 40.85896 | -73.29864 | 3821 ft | 198 kts | 24° |
| 2026-04-30 00:54 | 40.87161 | -73.29138 | 4072 ft | 198 kts | 24° |
| 2026-04-30 00:55 | 40.88422 | -73.28413 | 4323 ft | 197 kts | 24° |
| 2026-04-30 00:55 | 40.89681 | -73.27689 | 4574 ft | 197 kts | 24° |
| 2026-04-30 00:55 | 40.92175 | -73.26255 | 5073 ft | 197 kts | 24° |
| 2026-04-30 00:56 | 40.93427 | -73.25535 | 5323 ft | 197 kts | 24° |
| 2026-04-30 00:56 | 40.94690 | -73.24807 | 5576 ft | 196 kts | 24° |
| 2026-04-30 00:56 | 40.95932 | -73.24092 | 5826 ft | 196 kts | 24° |
| 2026-04-30 00:56 | 40.97177 | -73.23375 | 6076 ft | 196 kts | 24° |
| 2026-04-30 00:57 | 40.98432 | -73.22651 | 6328 ft | 196 kts | 24° |
| 2026-04-30 00:57 | 40.99690 | -73.21925 | 6580 ft | 197 kts | 24° |
| 2026-04-30 00:57 | 41.00953 | -73.21196 | 6833 ft | 197 kts | 24° |
| 2026-04-30 00:57 | 41.02202 | -73.20476 | 7083 ft | 198 kts | 24° |
| 2026-04-30 00:58 | 41.03481 | -73.19737 | 7338 ft | 199 kts | 24° |
| 2026-04-30 00:58 | 41.04750 | -73.19005 | 7591 ft | 199 kts | 23° |
| 2026-04-30 00:58 | 41.06014 | -73.18275 | 7843 ft | 200 kts | 23° |
| 2026-04-30 00:58 | 41.07277 | -73.17546 | 8094 ft | 200 kts | 23° |
| 2026-04-30 00:59 | 41.08556 | -73.16808 | 8348 ft | 201 kts | 22° |
| 2026-04-30 00:59 | 41.09847 | -73.16063 | 8603 ft | 201 kts | 22° |
| 2026-04-30 00:59 | 41.11072 | -73.15356 | 8839 ft | 201 kts | 22° |
| 2026-04-30 00:59 | 41.12395 | -73.14593 | 8997 ft | 207 kts | 22° |
| 2026-04-30 01:00 | 41.13744 | -73.13816 | 9019 ft | 217 kts | 22° |
| 2026-04-30 01:00 | 41.15163 | -73.12998 | 9019 ft | 224 kts | 22° |
| 2026-04-30 01:00 | 41.16616 | -73.12160 | 9016 ft | 229 kts | 22° |
| 2026-04-30 01:00 | 41.18071 | -73.11320 | 9056 ft | 230 kts | 22° |
| 2026-04-30 01:01 | 41.19521 | -73.10484 | 9253 ft | 224 kts | 22° |
| 2026-04-30 01:01 | 41.20943 | -73.09665 | 9447 ft | 220 kts | 21° |
| 2026-04-30 01:01 | 41.22332 | -73.08865 | 9629 ft | 218 kts | 21° |
| 2026-04-30 01:01 | 41.23722 | -73.08064 | 9775 ft | 219 kts | 21° |
| 2026-04-30 01:02 | 41.25126 | -73.07256 | 9923 ft | 219 kts | 21° |
| 2026-04-30 01:02 | 41.26528 | -73.06449 | 10071 ft | 219 kts | 21° |
| 2026-04-30 01:02 | 41.27913 | -73.05653 | 10217 ft | 219 kts | 22° |
| 2026-04-30 01:02 | 41.29320 | -73.04844 | 10365 ft | 220 kts | 22° |
| 2026-04-30 01:03 | 41.30721 | -73.04040 | 10512 ft | 220 kts | 22° |
| 2026-04-30 01:03 | 41.32113 | -73.03240 | 10658 ft | 220 kts | 22° |
| 2026-04-30 01:03 | 41.33527 | -73.02428 | 10807 ft | 220 kts | 23° |
| 2026-04-30 01:03 | 41.34937 | -73.01619 | 10955 ft | 221 kts | 23° |
| 2026-04-30 01:04 | 41.36350 | -73.00808 | 11103 ft | 221 kts | 24° |
| 2026-04-30 01:04 | 41.37757 | -73.00000 | 11251 ft | 221 kts | 24° |
| 2026-04-30 01:04 | 41.39158 | -72.99194 | 11398 ft | 221 kts | 24° |
| 2026-04-30 01:04 | 41.40568 | -72.98384 | 11546 ft | 222 kts | 24° |
| 2026-04-30 01:05 | 41.41989 | -72.97569 | 11695 ft | 222 kts | 24° |
| 2026-04-30 01:05 | 41.43406 | -72.96756 | 11844 ft | 222 kts | 24° |
| 2026-04-30 01:05 | 41.44818 | -72.95947 | 11992 ft | 222 kts | 25° |
| 2026-04-30 01:05 | 41.46238 | -72.95132 | 12141 ft | 222 kts | 25° |
| 2026-04-30 01:06 | 41.47649 | -72.94321 | 12290 ft | 222 kts | 25° |
| 2026-04-30 01:06 | 41.49065 | -72.93508 | 12440 ft | 222 kts | 25° |
| 2026-04-30 01:06 | 41.50476 | -72.92698 | 12589 ft | 221 kts | 25° |
| 2026-04-30 01:06 | 41.51895 | -72.91883 | 12740 ft | 222 kts | 25° |
| 2026-04-30 01:07 | 41.53274 | -72.90983 | 12887 ft | 220 kts | 36° |
| 2026-04-30 01:07 | 41.54347 | -72.89600 | 13041 ft | 214 kts | 56° |
| 2026-04-30 01:07 | 41.55334 | -72.88100 | 13189 ft | 213 kts | 60° |
| 2026-04-30 01:07 | 41.56245 | -72.86516 | 13345 ft | 213 kts | 59° |
| 2026-04-30 01:08 | 41.57223 | -72.85046 | 13493 ft | 217 kts | 47° |
| 2026-04-30 01:08 | 41.58436 | -72.83805 | 13646 ft | 219 kts | 38° |
| 2026-04-30 01:08 | 41.59442 | -72.82354 | 13800 ft | 213 kts | 58° |
| 2026-04-30 01:08 | 41.60347 | -72.80803 | 13952 ft | 212 kts | 59° |
| 2026-04-30 01:09 | 41.61253 | -72.79251 | 14103 ft | 212 kts | 58° |
| 2026-04-30 01:09 | 41.62146 | -72.77733 | 14240 ft | 202 kts | 58° |
| 2026-04-30 01:09 | 41.62989 | -72.76300 | 14373 ft | 190 kts | 58° |
| 2026-04-30 01:09 | 41.63784 | -72.74976 | 14498 ft | 174 kts | 66° |
| 2026-04-30 01:10 | 41.64509 | -72.73736 | 14617 ft | 165 kts | 60° |